Vallejo, CA (94589)

1:11 AM PST on February 13, 2016 (GMT -0800)
South Napa Valley | | Change Station
CLOSE
Current Station
Personal Weather Station
Location: American Canyon, CA
Elevation: 46 ft
Nearby Weather Stations

Elev 46 ft 38.16 °N, 122.25 °W | Updated 24 seconds ago

Mostly Cloudy
Mostly Cloudy
52.9 °F
Feels Like 52.9 °F
N
0.2
Wind Variable Wind from SW
Gusts 2.5 mph

Today
High -- | Low -- °F
--% Chance of Precip.
Yesterday
High -- | Low -- °F
Precip. -- in
Pressure 30.21 in
Visibility 0.5 miles
Clouds
Dew Point 52 °F
Humidity 97%
Rainfall 0.00 in
Snow Depth Not available.
7:01 AM 5:44 PM
Waxing Crescent, 29% visible
SPECI KAPC 130905Z AUTO 20003KT 1/2SM FG VV006 07/07 A3021 RMK AO2 T00720072
Pressure 30.21 in
Visibility 0.5 miles
Clouds
Dew Point 52 °F
Humidity 97%
Rainfall 0.00 in
Snow Depth Not available.
7:01 AM 5:44 PM
Waxing Crescent, 29% visible
SPECI KAPC 130905Z AUTO 20003KT 1/2SM FG VV006 07/07 A3021 RMK AO2 T00720072

10-Day Weather Forecast

Almanac

Astronomy

Feb. 13, 2016 Rise Set
Actual Time
Civil Twilight
Nautical Twilight
Astronomical Twilight
Moon
Length of Visible Light
Length of Day
Tomorrow will be .
, % of the Moon is Illuminated

Today's Extremes

State Highs State Lows

Community

WunderPhotos

Upload Photos

1,892,536 photos uploaded!

WunderBlog® & News

Nearby

Air Quality

  Air Quality AQ Index Pollutant
Not available.

Snow Depth

Station Depth Elevation

Earthquake Activity

City Distance Mag. Time & Date
Minimum magnitude displayed is 2.5.

Coastal Water Temperatures

Place Temperature

Stations

Nearby Weather Stations

Station Location Temp. Windchill Dew Point Humidity Wind Precip. Elev Updated Type
                   

Watches & Warnings

There are currently no watches in effect.